Weather observations for the past three days for
Laconia, Laconia Municipal Airport
Metric (Imperial)
Date Time (edt) Wind (kph) Vis. (km) Weather Sky Cond. Temperature (ºC) Relative Humidity Wind Chill (°C) Heat Index (°C) Pressure Precipitation (cm)
Air Dwpt 6 hour altimeter (cm) sea level (mb) 1 hr 3 hr 6 hr
Max. Min.
31 08:56 NW 6 16.09 Fair CLR 17.8 12.2 70% 76.58 1020.9
31 07:56 W 6 16.09 Fair CLR 15 12.2 15 11.1 83% 76.58 1020.8
31 06:56 W 6 16.09 Fair CLR 11.7 11.1 96% 76.53 1020.5
31 05:56 Calm 2.82 Fog/Mist CLR 11.1 10.6 97% 76.53 1020.2
31 03:56 Calm 16.09 Fair CLR 12.8 11.7 93% 76.45 1019.2
31 02:56 Calm 12.87 Fair CLR 12.8 12.2 96% 76.43 1018.8
31 01:56 W 9 16.09 Fair CLR 14.4 13.9 20.6 13.9 97% 76.4 1018.5 0.2
31 00:56 Calm 16.09 Fair CLR 15 13.9 93% 76.38 1018.2
30 23:56 W 11 16.09 Mostly Cloudy BKN075 BKN090 17.2 14.4 84% 76.38 1017.8
30 22:56 W 9 16.09 Mostly Cloudy FEW036 SCT049 BKN100 18.3 17.2 93% 76.35 1017.7 0.2
30 21:56 S 6 16.09 Overcast SCT047 OVC060 18.3 17.2 93% 76.33 1017.4 0.08
30 20:56 W 7 11.27 Heavy Rain FEW033 BKN049 OVC060 19.4 16.7 84% 76.3 1016.9 0.13
30 19:56 Calm 16.09 Overcast FEW045 BKN060 OVC110 20.6 16.7 23.3 20 78% 76.2 1015.7
30 18:56 Calm 16.09 Partly Cloudy SCT085 21.7 16.1 71% 76.17 1015.5
30 17:56 Calm 16.09 Mostly Cloudy BKN120 22.2 15.6 66% 76.2 1015.7
30 16:56 W 13 16.09 Fair CLR 22.8 15 62% 76.23 1016.0
30 15:56 W 13 16.09 Mostly Cloudy BKN110 22.8 15 62% 76.25 1016.5
30 14:56 SW 17 16.09 Mostly Cloudy BKN110 22.2 14.4 61% 76.3 1017.1
30 13:56 SW 13 16.09 Fair CLR 21.7 15 23.9 17.2 66% 76.35 1017.8
30 12:56 SW 19 16.09 Light Rain FEW055 BKN070 BKN085 20.6 16.7 78% 76.4 1018.7
30 11:56 SW 17 16.09 Fair CLR 23.3 14.4 57% 76.43 1018.6
30 10:56 SW 15 16.09 Fair CLR 22.8 13.9 57% 76.43 1018.8
30 09:56 SW 13 16.09 Fair CLR 21.7 12.8 57% 76.45 1019.0
30 08:56 W 9 16.09 Fair CLR 20 12.2 61% 76.48 1019.5
30 07:56 W 9 16.09 Fair CLR 17.2 11.7 17.2 13.9 70% 76.5 1019.8
30 06:56 W 6 16.09 Fair CLR 15.6 12.8 84% 76.5 1019.6
30 05:56 Calm 16.09 Fair CLR 15 11.7 81% 76.5 1019.9
30 04:56 W 9 16.09 Fair CLR 15.6 12.2 80% 76.53 1020.0
30 03:56 W 9 16.09 Fair CLR 15.6 11.7 78% 76.53 1020.0
30 02:56 W 6 16.09 Fair CLR 14.4 11.1 81% 76.5 1020.0
30 01:56 W 9 16.09 Fair CLR 15.6 10.6 20.6 13.9 72% 76.56 1020.3
30 00:56 W 7 16.09 Fair CLR 15.6 10.6 72% 76.56 1020.5
29 23:56 W 6 16.09 Fair CLR 15.6 11.1 75% 76.56 1020.6
29 22:56 W 6 16.09 Fair CLR 16.7 11.1 70% 76.58 1020.8
29 21:56 W 6 16.09 Fair CLR 15.6 11.1 75% 76.58 1020.9
29 20:56 Calm 16.09 Fair CLR 16.1 10.6 70% 76.58 1021.0
29 19:56 W 7 16.09 Fair CLR 20.6 8.9 24.4 20.6 47% 76.58 1020.8
29 18:56 W 9 16.09 Fair CLR 22.2 9.4 44% 76.53 1020.1
29 17:56 SW 15 16.09 Fair CLR 23.3 8.9 40% 76.56 1020.4
29 16:56 W 15 16.09 Fair CLR 24.4 8.9 37% 25 76.56 1020.6
29 15:56 Vrbl 9 16.09 Fair CLR 23.9 8.9 39% 25 76.58 1020.8
29 14:56 SW 13 16.09 Fair CLR 23.9 7.8 36% 25 76.61 1021.2
29 13:56 SW 15 16.09 Fair CLR 22.8 8.3 23.3 16.1 40% 76.66 1021.6
29 12:56 Vrbl 9 16.09 Fair CLR 22.8 8.3 40% 76.68 1022.0
29 11:56 NW 15 16.09 Fair CLR 21.7 7.8 41% 76.71 1022.4
29 10:56 Vrbl 7 16.09 Fair CLR 20.6 7.2 42% 76.76 1023.0
29 09:56 Vrbl 7 16.09 Fair CLR 19.4 8.3 49% 76.76 1023.1
29 08:56 W 9 16.09 Fair CLR 17.2 10 63% 76.76 1023.1
29 07:56 W 6 16.09 Fair CLR 16.1 10 16.7 11.7 67% 76.73 1022.8
29 06:56 Calm 16.09 Fair CLR 12.8 10 83% 76.68 1022.3
29 05:56 Calm 16.09 Fair CLR 13.3 9.4 77% 76.63 1021.4
29 04:56 Calm 16.09 Fair CLR 12.8 9.4 80% 76.58 1020.8
29 03:56 W 9 16.09 Fair CLR 15 9.4 69% 76.53 1020.4
29 02:56 NW 7 16.09 Fair CLR 15.6 8.9 65% 76.5 1019.9
29 01:56 W 6 16.09 Fair CLR 16.7 8.3 22.8 16.7 58% 76.5 1019.8
29 00:56 W 7 16.09 Fair CLR 17.8 8.9 56% 76.48 1019.5
28 23:56 Vrbl 9 16.09 Fair CLR 18.3 10 59% 76.43 1018.8
28 22:56 Vrbl 11 16.09 Fair CLR 19.4 11.1 59% 76.38 1018.0
28 21:56 Vrbl 11 16.09 Fair CLR 20.6 13.3 63% 76.33 1017.3
28 20:56 W 9 16.09 Fair CLR 21.7 15 66% 76.25 1016.6
28 19:56 W 9 16.09 Fair CLR 22.8 15.6 28.3 22.8 64% 76.17 1015.5
28 18:56 W 7 16.09 Fair CLR 25.6 16.1 56% 26 76.15 1015.1
28 17:56 W 13 16.09 Fair CLR 26.7 15.6 51% 27 76.12 1014.7
28 16:56 SW 20 16.09 Fair CLR 27.8 16.1 49% 28 76.1 1014.4
28 15:56 W 19 16.09 Partly Cloudy SCT100 27.2 15.6 49% 28 76.12 1014.5
28 14:56 W 17 16.09 Mostly Cloudy BKN050 27.8 16.1 49% 28 76.12 1014.7
28 13:56 Calm 16.09 A Few Clouds FEW045 27.2 17.8 27.8 20 57% 28 76.15 1014.9
28 12:56 W 11 11.27 A Few Clouds FEW033 27.2 18.3 58% 28 76.17 1015.3
28 11:56 Vrbl 9 16.09 Fair CLR 25 18.3 66% 26 76.2 1015.8
28 10:56 SW 11 16.09 Partly Cloudy SCT100 23.9 18.9 74% 25 76.23 1016.1
28 09:56 SW 9 16.09 Partly Cloudy SCT100 22.2 18.3 79% 76.25 1016.3
Date Time (edt) Wind (kph) Vis. (km) Weather Sky Cond. Air Dwpt Max. Min. Relative Humidity Wind Chill (°C) Heat Index (°C) altimeter (cm) sea level (mb) 1 hr 3 hr 6 hr
6 hour
Temperature (ºC) Pressure Precipitation (cm)